Terminal Aerodrome Forecast
Issued by NWS Jackson, MS

Home | Current Version | Previous Version | Text Only | Print | Product List | Glossary On
Versions: 1 2 3 4 5 6 7 8 9 10 11 12 13 14 15
980
FTUS44 KMEG 281513 AAA
TAFTUP
TAF AMD
KTUP 281513Z 2815/2912 24008KT P6SM VCTS BKN050CB
      TEMPO 2815/2817 BKN010CB
     FM281700 28009KT P6SM VCTS BKN050CB OVC250
      TEMPO 2819/2823 5SM TSRA BKN025CB
     FM290300 36006KT P6SM SCT050 SCT250
     FM290800 04007KT P6SM FEW050=

USA.gov is the U.S. government's official web portal to all federal, state and local government web resources and services.